createdAt,value
2023-03-01T00:01:16.480Z,0.90
2023-03-01T00:05:25.134Z,0.90
2023-03-01T00:09:33.749Z,0.90
2023-03-01T00:13:43.429Z,0.90
2023-03-01T00:17:52.021Z,0.90
2023-03-01T00:22:00.586Z,0.90
2023-03-01T00:26:12.274Z,0.90
2023-03-01T00:30:20.952Z,0.90
2023-03-01T00:34:29.498Z,0.90
2023-03-01T00:38:42.295Z,0.80
2023-03-01T00:42:50.839Z,0.80
2023-03-01T00:46:59.386Z,0.80
2023-03-01T00:51:13.779Z,0.70
2023-03-01T00:55:22.505Z,0.70
2023-03-01T00:59:31.138Z,0.70
2023-03-01T01:03:39.764Z,0.70
2023-03-01T01:07:49.003Z,0.70
2023-03-01T01:11:57.586Z,0.60
2023-03-01T01:16:06.907Z,0.50
2023-03-01T01:20:15.488Z,0.50
2023-03-01T01:24:24.341Z,0.50
2023-03-01T01:28:52.313Z,0.40
2023-03-01T01:33:00.951Z,0.40
2023-03-01T01:37:09.679Z,0.40
2023-03-01T01:41:18.924Z,0.40
2023-03-01T01:45:38.224Z,0.40
2023-03-01T01:49:52.870Z,0.40
2023-03-01T01:54:03.238Z,0.30
2023-03-01T01:58:14.842Z,0.30
2023-03-01T02:02:24.013Z,0.30
2023-03-01T02:06:38.447Z,0.20
2023-03-01T02:10:48.073Z,0.20
2023-03-01T02:14:56.929Z,0.20
2023-03-01T02:19:07.323Z,0.30
2023-03-01T02:23:16.090Z,0.20
2023-03-01T02:27:27.730Z,0.10
2023-03-01T02:31:45.832Z,0.10
2023-03-01T02:35:56.333Z,0.10
2023-03-01T02:40:08.089Z,0.10
2023-03-01T02:44:16.898Z,0.10
2023-03-01T02:48:25.627Z,0.10
2023-03-01T02:52:49.208Z,0.00
2023-03-01T02:56:58.049Z,0.00
2023-03-01T03:01:06.572Z,0.00
2023-03-01T03:05:18.802Z,0.00
2023-03-01T03:09:27.719Z,-0.10
2023-03-01T03:13:36.348Z,-0.10
2023-03-01T03:18:05.147Z,-0.10
2023-03-01T03:22:14.603Z,-0.10
2023-03-01T03:26:23.222Z,-0.10
2023-03-01T03:30:33.353Z,0.00
2023-03-01T03:34:42.018Z,-0.10
2023-03-01T03:38:50.650Z,-0.10
2023-03-01T03:42:59.174Z,-0.10
2023-03-01T03:47:07.819Z,-0.20
2023-03-01T03:51:18.530Z,-0.20
2023-03-01T03:55:28.847Z,-0.20
2023-03-01T03:59:37.480Z,-0.20
2023-03-01T04:03:47.642Z,-0.20
2023-03-01T04:07:58.117Z,-0.20
2023-03-01T04:12:06.737Z,-0.20
2023-03-01T04:16:15.399Z,-0.20
2023-03-01T04:20:26.681Z,-0.20
2023-03-01T04:24:35.929Z,-0.30
2023-03-01T04:28:46.801Z,-0.30
2023-03-01T04:32:55.516Z,-0.30
2023-03-01T04:37:23.498Z,-0.40
2023-03-01T04:41:32.330Z,-0.40
2023-03-01T04:45:41.350Z,-0.60
2023-03-01T04:49:50.006Z,-0.70
2023-03-01T04:53:58.527Z,-0.60
2023-03-01T04:58:07.155Z,-0.60
2023-03-01T05:02:15.882Z,-0.60
2023-03-01T05:06:24.530Z,-0.60
2023-03-01T05:10:36.152Z,-0.60
2023-03-01T05:14:44.761Z,-0.50
2023-03-01T05:18:53.328Z,-0.50
2023-03-01T05:23:04.154Z,-0.50
2023-03-01T05:27:13.135Z,-0.50
2023-03-01T05:31:42.042Z,-0.50
2023-03-01T05:35:52.666Z,-0.50
2023-03-01T05:40:01.285Z,-0.40
2023-03-01T05:44:09.929Z,-0.50
2023-03-01T05:48:20.703Z,-0.40
2023-03-01T05:52:29.347Z,-0.50
2023-03-01T05:56:39.124Z,-0.60
2023-03-01T06:00:49.324Z,-0.60
2023-03-01T06:04:58.092Z,-0.60
2023-03-01T06:09:08.233Z,-0.60
2023-03-01T06:13:16.876Z,-0.50
2023-03-01T06:17:25.515Z,-0.50
2023-03-01T06:21:34.136Z,-0.70
2023-03-01T06:26:02.528Z,-0.70
2023-03-01T06:30:13.009Z,-0.60
2023-03-01T06:34:22.771Z,-0.60
2023-03-01T06:38:31.388Z,-0.60
2023-03-01T06:42:42.408Z,-0.60
2023-03-01T06:46:51.127Z,-0.70
2023-03-01T06:51:03.299Z,-0.70
2023-03-01T06:55:12.587Z,-0.70
2023-03-01T06:59:21.486Z,-0.70
2023-03-01T07:03:29.975Z,-0.70
2023-03-01T07:07:38.667Z,-0.60
2023-03-01T07:11:47.894Z,-0.70
2023-03-01T07:15:56.572Z,-0.60
2023-03-01T07:20:05.377Z,-0.60
2023-03-01T07:24:13.916Z,-0.50
2023-03-01T07:28:24.117Z,-0.40
2023-03-01T07:32:32.957Z,-0.40
2023-03-01T07:36:43.351Z,-0.30
2023-03-01T07:40:51.991Z,-0.30
2023-03-01T07:45:00.702Z,-0.20
2023-03-01T07:49:09.329Z,-0.20
2023-03-01T07:53:17.986Z,-0.20
2023-03-01T07:57:26.934Z,-0.10
2023-03-01T08:01:38.503Z,0.00
2023-03-01T08:05:47.222Z,0.10
2023-03-01T08:09:55.747Z,0.10
2023-03-01T08:14:23.577Z,0.20
2023-03-01T08:18:32.356Z,0.30
2023-03-01T08:22:41.189Z,0.40
2023-03-01T08:26:49.695Z,0.50
2023-03-01T08:30:58.348Z,0.50
2023-03-01T08:35:07.723Z,0.60
2023-03-01T08:39:19.132Z,0.70
2023-03-01T08:43:27.923Z,0.80
2023-03-01T08:47:36.500Z,0.90
2023-03-01T08:51:46.812Z,1.00
2023-03-01T08:55:55.354Z,1.20
2023-03-01T09:00:04.467Z,1.40
2023-03-01T09:04:13.812Z,1.60
2023-03-01T09:08:22.492Z,1.70
2023-03-01T09:12:31.116Z,1.90
2023-03-01T09:16:40.802Z,2.10
2023-03-01T09:20:49.415Z,2.20
2023-03-01T09:24:59.621Z,2.40
2023-03-01T09:29:09.814Z,2.50
2023-03-01T09:33:19.955Z,2.70
2023-03-01T09:37:29.392Z,2.90
2023-03-01T09:41:41.049Z,2.90
2023-03-01T09:45:51.633Z,3.10
2023-03-01T09:50:15.672Z,3.20
2023-03-01T09:54:24.517Z,3.20
2023-03-01T09:58:44.760Z,3.40
2023-03-01T10:03:24.920Z,3.50
2023-03-01T10:07:52.781Z,3.70
2023-03-01T10:12:04.195Z,3.80
2023-03-01T10:16:15.847Z,3.80
2023-03-01T10:20:27.186Z,3.90
2023-03-01T10:24:37.955Z,3.90
2023-03-01T10:29:01.403Z,4.00
2023-03-01T10:33:31.004Z,4.10
2023-03-01T10:37:42.632Z,4.30
2023-03-01T10:42:06.227Z,4.40
2023-03-01T10:46:29.833Z,4.70
2023-03-01T10:50:42.189Z,4.90
2023-03-01T10:54:55.765Z,5.10
2023-03-01T10:59:07.890Z,5.20
2023-03-01T11:03:29.583Z,5.40
2023-03-01T11:07:38.452Z,5.50
2023-03-01T11:11:51.341Z,5.60
2023-03-01T11:16:13.694Z,5.60
2023-03-01T11:20:34.029Z,5.80
2023-03-01T11:25:07.126Z,6.00
2023-03-01T11:29:05.761Z,6.10
2023-03-01T11:33:20.082Z,6.20
2023-03-01T11:37:47.127Z,6.30
2023-03-01T11:42:18.640Z,6.30
2023-03-01T11:46:36.510Z,6.40
2023-03-01T11:50:51.255Z,6.60
2023-03-01T11:55:20.493Z,6.60
2023-03-01T11:59:38.461Z,6.70
2023-03-01T12:04:16.904Z,6.90
2023-03-01T12:08:43.332Z,6.90
2023-03-01T12:13:06.862Z,7.00
2023-03-01T12:17:55.373Z,7.10
2023-03-01T12:22:10.174Z,7.10
2023-03-01T12:26:54.822Z,7.10
2023-03-01T12:31:26.228Z,7.10
2023-03-01T12:36:02.281Z,7.10
2023-03-01T12:40:37.949Z,7.10
2023-03-01T12:45:00.984Z,7.10
2023-03-01T12:49:18.577Z,6.90
2023-03-01T12:53:33.170Z,7.00
2023-03-01T12:57:50.781Z,7.10
2023-03-01T13:02:29.176Z,7.00
2023-03-01T13:06:44.179Z,7.00
2023-03-01T13:11:02.602Z,7.10
2023-03-01T13:15:38.609Z,7.10
2023-03-01T13:19:58.944Z,7.20
2023-03-01T13:24:29.557Z,7.20
2023-03-01T13:28:50.348Z,7.10
2023-03-01T13:33:18.564Z,7.10
2023-03-01T13:37:37.830Z,7.00
2023-03-01T13:41:49.722Z,7.10
2023-03-01T13:45:59.264Z,7.10
2023-03-01T13:50:13.230Z,7.00
2023-03-01T13:54:33.509Z,7.10
2023-03-01T13:59:01.589Z,7.00
2023-03-01T14:03:18.563Z,7.10
2023-03-01T14:07:30.021Z,7.20
2023-03-01T14:11:44.777Z,7.20
2023-03-01T14:16:05.560Z,7.30
2023-03-01T14:20:23.442Z,7.30
2023-03-01T14:24:34.828Z,7.20
2023-03-01T14:29:02.726Z,7.20
2023-03-01T14:33:35.235Z,7.20
2023-03-01T14:37:43.925Z,7.30
2023-03-01T14:41:53.103Z,7.30
2023-03-01T14:46:02.111Z,7.30
2023-03-01T14:50:13.939Z,7.20
2023-03-01T14:54:32.624Z,7.20
2023-03-01T14:59:02.224Z,7.20
2023-03-01T15:03:38.104Z,7.20
2023-03-01T15:07:49.244Z,7.20
2023-03-01T15:11:57.817Z,7.20
2023-03-01T15:16:09.668Z,7.20
2023-03-01T15:20:25.183Z,7.10
2023-03-01T15:24:34.842Z,7.00
2023-03-01T15:28:46.491Z,6.90
2023-03-01T15:33:32.917Z,6.90
2023-03-01T15:37:50.155Z,6.80
2023-03-01T15:41:59.406Z,6.80
2023-03-01T15:46:17.519Z,6.80
2023-03-01T15:50:35.120Z,6.70
2023-03-01T15:54:43.685Z,6.70
2023-03-01T15:58:52.246Z,6.60
2023-03-01T16:03:01.372Z,6.50
2023-03-01T16:07:19.321Z,6.50
2023-03-01T16:11:28.644Z,6.40
2023-03-01T16:15:37.545Z,6.40
2023-03-01T16:19:46.091Z,6.30
2023-03-01T16:23:55.103Z,6.30
2023-03-01T16:28:05.490Z,6.30
2023-03-01T16:32:14.496Z,6.20
2023-03-01T16:36:24.943Z,6.10
2023-03-01T16:40:33.523Z,6.10
2023-03-01T16:45:05.389Z,6.00
2023-03-01T16:49:12.910Z,6.00
2023-03-01T16:53:21.630Z,5.90
2023-03-01T16:57:30.261Z,5.80
2023-03-01T17:01:40.645Z,5.70
2023-03-01T17:05:49.565Z,5.70
2023-03-01T17:09:58.216Z,5.60
2023-03-01T17:14:06.802Z,5.60
2023-03-01T17:18:15.452Z,5.40
2023-03-01T17:22:24.082Z,5.40
2023-03-01T17:26:32.745Z,5.30
2023-03-01T17:31:01.313Z,5.20
2023-03-01T17:35:12.100Z,5.20
2023-03-01T17:39:24.088Z,5.10
2023-03-01T17:43:34.409Z,5.00
2023-03-01T17:47:43.172Z,5.00
2023-03-01T17:51:51.817Z,4.90
2023-03-01T17:56:02.538Z,4.90
2023-03-01T18:00:13.935Z,4.80
2023-03-01T18:04:22.503Z,4.70
2023-03-01T18:08:31.065Z,4.70
2023-03-01T18:12:40.069Z,4.60
2023-03-01T18:16:48.793Z,4.60
2023-03-01T18:20:59.386Z,4.60
2023-03-01T18:25:08.508Z,4.60
2023-03-01T18:29:17.260Z,4.50
2023-03-01T18:33:29.428Z,4.50
2023-03-01T18:37:38.595Z,4.40
2023-03-01T18:41:47.241Z,4.30
2023-03-01T18:45:59.685Z,4.30
2023-03-01T18:50:09.003Z,4.30
2023-03-01T18:54:17.863Z,4.20
2023-03-01T18:58:26.465Z,4.20
2023-03-01T19:02:35.022Z,4.20
2023-03-01T19:06:44.149Z,4.10
2023-03-01T19:11:04.743Z,4.20
2023-03-01T19:15:15.313Z,4.10
2023-03-01T19:19:23.862Z,4.10
2023-03-01T19:23:36.376Z,4.00
2023-03-01T19:27:44.996Z,3.90
2023-03-01T19:31:53.748Z,3.90
2023-03-01T19:36:03.662Z,3.80
2023-03-01T19:40:13.139Z,3.80
2023-03-01T19:44:25.097Z,3.70
2023-03-01T19:48:33.729Z,3.70
2023-03-01T19:52:45.425Z,3.70
2023-03-01T19:56:55.788Z,3.70
2023-03-01T20:01:04.402Z,3.50
2023-03-01T20:05:12.944Z,3.50
2023-03-01T20:09:22.619Z,3.50
2023-03-01T20:13:31.474Z,3.50
2023-03-01T20:17:40.019Z,3.50
2023-03-01T20:21:48.648Z,3.40
2023-03-01T20:26:05.842Z,3.40
2023-03-01T20:30:16.105Z,3.40
2023-03-01T20:34:24.713Z,3.40
2023-03-01T20:38:33.796Z,3.30
2023-03-01T20:42:42.422Z,3.30
2023-03-01T20:46:51.039Z,3.30
2023-03-01T20:51:02.398Z,3.30
2023-03-01T20:55:11.731Z,3.30
2023-03-01T20:59:20.294Z,3.20
2023-03-01T21:03:29.702Z,3.20
2023-03-01T21:07:38.325Z,3.20
2023-03-01T21:11:46.922Z,3.20
2023-03-01T21:16:01.621Z,3.20
2023-03-01T21:20:11.392Z,3.20
2023-03-01T21:24:19.945Z,3.20
2023-03-01T21:28:30.300Z,3.10
2023-03-01T21:32:39.005Z,3.10
2023-03-01T21:37:07.440Z,3.10
2023-03-01T21:41:18.811Z,3.10
2023-03-01T21:45:27.449Z,3.00
2023-03-01T21:49:36.028Z,3.00
2023-03-01T21:53:44.838Z,3.00
2023-03-01T21:57:53.399Z,3.00
2023-03-01T22:02:01.944Z,3.00
2023-03-01T22:06:12.371Z,2.90
2023-03-01T22:10:22.638Z,2.90
2023-03-01T22:14:32.487Z,2.90
2023-03-01T22:18:41.130Z,2.90
2023-03-01T22:22:49.759Z,2.90
2023-03-01T22:26:58.381Z,2.90
2023-03-01T22:31:07.012Z,2.90
2023-03-01T22:35:15.847Z,2.90
2023-03-01T22:39:24.582Z,2.80
2023-03-01T22:43:34.437Z,2.80
2023-03-01T22:47:42.994Z,2.80
2023-03-01T22:51:52.791Z,2.80
2023-03-01T22:56:13.819Z,2.80
2023-03-01T23:00:23.018Z,2.80
2023-03-01T23:04:31.581Z,2.80
2023-03-01T23:08:40.238Z,2.90
2023-03-01T23:12:48.869Z,2.80
2023-03-01T23:16:58.603Z,2.80
2023-03-01T23:21:16.206Z,2.80
2023-03-01T23:25:25.506Z,2.80
2023-03-01T23:29:34.234Z,2.70
2023-03-01T23:33:45.279Z,2.70
2023-03-01T23:37:53.884Z,2.70
2023-03-01T23:42:02.440Z,2.70
2023-03-01T23:46:12.675Z,2.70
2023-03-01T23:50:21.300Z,2.70
2023-03-01T23:54:30.342Z,2.60
2023-03-01T23:58:39.035Z,2.60
